Time;durP1;ratioP1;P1;durP2;ratioP2;P2;SDS_P1;SDS_P2;PMS_P1;PMS_P2;Temp;Humidity;BMP_temperature;BMP_pressure;BME280_temperature;BME280_humidity;BME280_pressure;Samples;Min_cycle;Max_cycle;Signal;HPM_P1;HPM_P2
2022/03/16 00:01:00;;;;;;;26.67;17.85;;;;;;;2.78;100.00;99392.44;4164903;28;20047;-71
2022/03/16 00:03:00;;;;;;;32.15;18.85;;;;;;;2.78;100.00;99395.19;4163784;28;20334;-71
2022/03/16 00:05:00;;;;;;;28.95;18.23;;;;;;;2.78;100.00;99390.53;4163187;28;20518;-70
2022/03/16 00:07:01;;;;;;;42.92;21.83;;;;;;;2.80;100.00;99390.22;4163624;28;20435;-70
2022/03/16 00:09:02;;;;;;;39.25;21.67;;;;;;;2.91;100.00;99394.38;4163542;28;20037;-71
2022/03/16 00:11:04;;;;;;;34.90;21.23;;;;;;;2.91;100.00;99401.78;4164956;28;20049;-71
2022/03/16 00:13:04;;;;;;;37.97;19.92;;;;;;;2.80;100.00;99401.16;4173816;28;20041;-70
2022/03/16 00:15:05;;;;;;;49.83;20.55;;;;;;;2.72;100.00;99407.31;4174038;28;20049;-71
2022/03/16 00:17:07;;;;;;;53.30;20.55;;;;;;;2.68;100.00;99403.59;4172924;28;20045;-71
2022/03/16 00:19:07;;;;;;;32.20;18.38;;;;;;;2.70;100.00;99410.34;4175373;28;20033;-71
2022/03/16 00:21:08;;;;;;;76.43;24.35;;;;;;;2.70;100.00;99415.00;4173680;28;20106;-71
2022/03/16 00:23:08;;;;;;;39.97;21.02;;;;;;;2.71;100.00;99403.78;4164317;28;20071;-71
2022/03/16 00:25:10;;;;;;;55.83;24.00;;;;;;;2.73;100.00;99422.59;4163815;28;20546;-71
2022/03/16 00:27:11;;;;;;;44.20;21.17;;;;;;;2.72;100.00;99415.50;4162699;28;20037;-71
2022/03/16 00:29:11;;;;;;;38.42;20.33;;;;;;;2.69;100.00;99419.66;4164091;28;20056;-71
2022/03/16 00:31:11;;;;;;;48.95;20.92;;;;;;;2.63;100.00;99422.81;4163808;28;20172;-71
2022/03/16 00:33:12;;;;;;;34.88;20.33;;;;;;;2.57;100.00;99419.38;4167056;28;20378;-71
2022/03/16 00:35:13;;;;;;;32.65;18.35;;;;;;;2.55;100.00;99421.56;4177011;28;20044;-71
2022/03/16 00:37:14;;;;;;;43.42;20.33;;;;;;;2.43;100.00;99422.09;4174445;28;20041;-71
2022/03/16 00:39:15;;;;;;;38.72;18.65;;;;;;;2.40;100.00;99421.84;4173122;28;20044;-70
2022/03/16 00:41:16;;;;;;;46.58;17.52;;;;;;;2.38;100.00;99433.09;4169851;28;20404;-71
2022/03/16 00:43:16;;;;;;;42.38;18.25;;;;;;;2.35;100.00;99420.03;4171040;28;20491;-71
2022/03/16 00:45:17;;;;;;;35.47;15.77;;;;;;;2.31;100.00;99434.59;4174347;28;20040;-71
2022/03/16 00:47:17;;;;;;;65.95;17.67;;;;;;;2.20;100.00;99437.50;4174219;28;20118;-71
2022/03/16 00:49:17;;;;;;;29.50;17.42;;;;;;;2.12;100.00;99429.19;4174288;28;20039;-71
2022/03/16 00:51:18;;;;;;;34.58;16.80;;;;;;;2.08;100.00;99425.44;4172402;28;20080;-71
2022/03/16 00:53:18;;;;;;;55.33;17.38;;;;;;;2.06;100.00;99436.66;4173676;28;20118;-71
2022/03/16 00:55:19;;;;;;;52.47;18.98;;;;;;;1.98;100.00;99426.41;4174005;28;20475;-71
2022/03/16 00:57:19;;;;;;;28.05;17.23;;;;;;;2.00;100.00;99437.06;4173197;28;20112;-71
2022/03/16 00:59:19;;;;;;;62.70;19.20;;;;;;;1.95;100.00;99433.28;4174323;28;20041;-71
2022/03/16 01:01:20;;;;;;;35.15;17.85;;;;;;;1.93;100.00;99427.31;4170450;28;20095;-71
2022/03/16 01:03:20;;;;;;;40.75;18.33;;;;;;;1.93;100.00;99438.22;4168750;28;20470;-70
2022/03/16 01:05:20;;;;;;;49.08;17.90;;;;;;;1.93;100.00;99442.88;4168356;28;20068;-70
2022/03/16 01:07:21;;;;;;;49.78;18.08;;;;;;;1.85;100.00;99441.63;4167940;28;20041;-70
2022/03/16 01:09:21;;;;;;;32.50;18.60;;;;;;;1.88;100.00;99445.69;4166356;28;20041;-70
2022/03/16 01:11:21;;;;;;;60.10;20.10;;;;;;;1.80;100.00;99447.16;4167331;28;20128;-70
2022/03/16 01:13:22;;;;;;;40.45;20.67;;;;;;;1.73;100.00;99435.00;4168069;28;20134;-70
2022/03/16 01:15:23;;;;;;;34.53;20.23;;;;;;;1.72;100.00;99438.84;4173740;28;20412;-70
2022/03/16 01:17:24;;;;;;;40.08;20.77;;;;;;;1.72;100.00;99442.38;4169785;28;20140;-70
2022/03/16 01:19:25;;;;;;;114.75;26.20;;;;;;;1.77;100.00;99444.22;4174735;28;20078;-70
2022/03/16 01:21:25;;;;;;;116.13;27.42;;;;;;;1.80;100.00;99449.09;4174787;28;20048;-70
2022/03/16 01:23:25;;;;;;;140.43;28.65;;;;;;;1.82;100.00;99441.41;4176939;28;20101;-71
2022/03/16 01:25:26;;;;;;;80.30;27.70;;;;;;;1.88;100.00;99443.75;4178433;28;20036;-71
2022/03/16 01:27:26;;;;;;;67.25;26.80;;;;;;;1.90;100.00;99435.28;4177300;28;20495;-71
2022/03/16 01:29:27;;;;;;;104.75;27.63;;;;;;;1.91;100.00;99445.09;4175396;28;20036;-71
2022/03/16 01:31:28;;;;;;;87.13;27.05;;;;;;;1.91;100.00;99440.47;4179993;28;20041;-70
2022/03/16 01:33:29;;;;;;;55.88;24.52;;;;;;;1.92;100.00;99449.44;4177049;28;20048;-71
2022/03/16 01:35:30;;;;;;;57.72;23.98;;;;;;;1.96;100.00;99436.81;4177512;28;20174;-71
2022/03/16 01:37:31;;;;;;;106.78;28.63;;;;;;;1.87;100.00;99449.53;4176282;28;20206;-71
2022/03/16 01:39:32;;;;;;;49.30;22.17;;;;;;;1.83;100.00;99449.31;4168423;28;20627;-71
2022/03/16 01:41:32;;;;;;;57.42;23.02;;;;;;;1.78;100.00;99443.94;4165881;28;20033;-71
2022/03/16 01:43:32;;;;;;;36.47;19.75;;;;;;;1.73;100.00;99443.19;4178877;28;20512;-71
2022/03/16 01:45:33;;;;;;;35.15;17.65;;;;;;;1.61;100.00;99451.81;4174224;28;20124;-71
2022/03/16 01:47:33;;;;;;;47.00;16.95;;;;;;;1.49;100.00;99446.81;4175719;28;20063;-71
2022/03/16 01:49:34;;;;;;;56.97;17.27;;;;;;;1.30;100.00;99446.78;4178899;28;20739;-70
2022/03/16 01:51:36;;;;;;;116.47;18.85;;;;;;;1.12;100.00;99444.88;4176320;28;20491;-71
2022/03/16 01:53:36;;;;;;;129.32;21.88;;;;;;;0.97;100.00;99453.22;4173687;28;20028;-71
2022/03/16 01:55:38;;;;;;;124.07;22.48;;;;;;;0.85;100.00;99453.66;4173395;28;20036;-71
2022/03/16 01:57:42;;;;;;;156.37;24.03;;;;;;;0.72;100.00;99462.50;4170055;28;20041;-71
2022/03/16 01:59:43;;;;;;;85.88;21.42;;;;;;;0.67;100.00;99462.56;4169411;28;20047;-70
2022/03/16 02:01:43;;;;;;;204.48;23.75;;;;;;;0.54;100.00;99456.69;4168661;28;20045;-71
2022/03/16 02:03:43;;;;;;;26.70;15.45;;;;;;;0.60;100.00;99456.66;4169976;28;20049;-70
2022/03/16 02:05:44;;;;;;;64.30;18.92;;;;;;;0.47;100.00;99453.50;4174744;28;21634;-71
2022/03/16 02:07:45;;;;;;;98.07;21.98;;;;;;;0.37;100.00;99456.31;4174399;28;20529;-71
2022/03/16 02:09:45;;;;;;;113.78;22.00;;;;;;;0.34;100.00;99461.53;4173811;28;20049;-71
2022/03/16 02:11:45;;;;;;;34.40;19.23;;;;;;;0.24;100.00;99462.44;4169727;28;20501;-71
2022/03/16 02:13:47;;;;;;;112.25;22.88;;;;;;;0.22;100.00;99467.34;4172961;28;20037;-71
2022/03/16 02:15:47;;;;;;;134.68;23.80;;;;;;;0.15;100.00;99464.16;4173164;28;20480;-71
2022/03/16 02:17:50;;;;;;;112.65;24.88;;;;;;;0.13;100.00;99474.50;4174126;28;20048;-71
2022/03/16 02:19:51;;;;;;;54.78;19.25;;;;;;;0.02;100.00;99479.22;4173366;28;20365;-71
2022/03/16 02:21:56;;;;;;;27.88;16.30;;;;;;;0.02;100.00;99464.81;4176220;28;20381;-70
2022/03/16 02:23:57;;;;;;;78.32;19.77;;;;;;;-0.01;100.00;99467.00;4172295;28;20127;-70
2022/03/16 02:25:58;;;;;;;33.78;15.38;;;;;;;-0.04;100.00;99474.91;4176572;28;20467;-71
2022/03/16 02:27:59;;;;;;;49.08;17.05;;;;;;;-0.08;100.00;99473.88;4172193;28;20041;-70
2022/03/16 02:29:59;;;;;;;24.90;15.43;;;;;;;-0.07;100.00;99472.78;4174421;28;20369;-70
2022/03/16 02:32:00;;;;;;;23.63;14.80;;;;;;;-0.11;100.00;99472.50;4179424;28;20063;-71
2022/03/16 02:34:00;;;;;;;24.23;15.23;;;;;;;-0.11;100.00;99486.13;4174839;28;20048;-71
2022/03/16 02:36:00;;;;;;;19.58;13.48;;;;;;;-0.15;100.00;99481.53;4173335;28;20359;-70
2022/03/16 02:38:01;;;;;;;33.50;15.27;;;;;;;-0.16;100.00;99486.16;4169955;28;20055;-71
2022/03/16 02:40:02;;;;;;;20.95;13.63;;;;;;;-0.21;100.00;99482.66;4171120;28;20406;-71
2022/03/16 02:42:04;;;;;;;27.77;14.20;;;;;;;-0.17;100.00;99483.72;4170981;28;20029;-71
2022/03/16 02:44:05;;;;;;;21.42;13.07;;;;;;;-0.18;100.00;99484.81;4173749;28;20078;-71
2022/03/16 02:46:05;;;;;;;32.88;15.27;;;;;;;-0.20;100.00;99487.00;4178008;28;20412;-71
2022/03/16 02:48:06;;;;;;;22.80;13.77;;;;;;;-0.16;100.00;99498.97;4176945;28;20059;-71
2022/03/16 02:50:07;;;;;;;21.67;15.07;;;;;;;-0.05;100.00;99498.59;4171073;28;20166;-71
2022/03/16 02:52:09;;;;;;;22.40;14.88;;;;;;;0.02;100.00;99503.72;4170733;28;20392;-71
2022/03/16 02:54:09;;;;;;;29.02;14.60;;;;;;;0.07;100.00;99511.00;4170499;28;20040;-71
2022/03/16 02:56:10;;;;;;;20.05;13.55;;;;;;;0.06;100.00;99509.41;4170516;28;20380;-71
2022/03/16 02:58:12;;;;;;;19.35;13.13;;;;;;;0.05;100.00;99513.22;4176682;28;20040;-71
2022/03/16 03:00:14;;;;;;;19.88;13.40;;;;;;;-0.01;100.00;99520.59;4184776;28;20442;-71
2022/03/16 03:02:14;;;;;;;30.80;14.35;;;;;;;-0.02;100.00;99514.34;4177366;28;20136;-71
2022/03/16 03:04:15;;;;;;;24.73;14.65;;;;;;;0.01;100.00;99529.31;4172115;28;20056;-71
2022/03/16 03:06:15;;;;;;;19.58;13.05;;;;;;;0.02;100.00;99525.50;4171330;28;20079;-71
2022/03/16 03:08:16;;;;;;;19.33;12.82;;;;;;;0.01;100.00;99528.50;4175636;28;20088;-71
2022/03/16 03:10:16;;;;;;;22.27;13.95;;;;;;;0.08;100.00;99523.53;4179745;28;20438;-71
2022/03/16 03:12:17;;;;;;;23.08;14.25;;;;;;;0.15;100.00;99533.00;4178643;28;20039;-71
2022/03/16 03:14:17;;;;;;;19.85;12.73;;;;;;;0.15;100.00;99535.72;4185933;28;20106;-71
2022/03/16 03:16:17;;;;;;;22.10;13.82;;;;;;;0.11;100.00;99534.66;4180975;28;20346;-71
2022/03/16 03:18:18;;;;;;;21.67;13.52;;;;;;;0.10;100.00;99533.03;4185389;28;20039;-71
2022/03/16 03:20:19;;;;;;;21.63;13.30;;;;;;;0.11;100.00;99539.31;4184586;28;20028;-71
2022/03/16 03:22:19;;;;;;;18.10;13.35;;;;;;;0.14;100.00;99542.25;4175475;28;20033;-71
2022/03/16 03:24:20;;;;;;;22.77;14.15;;;;;;;0.18;100.00;99539.78;4170656;28;20366;-71
2022/03/16 03:26:20;;;;;;;19.90;12.27;;;;;;;0.12;100.00;99539.00;4172446;28;20040;-71
2022/03/16 03:28:21;;;;;;;21.92;13.15;;;;;;;0.12;100.00;99540.91;4175877;28;20465;-71
2022/03/16 03:30:21;;;;;;;19.23;13.02;;;;;;;0.10;100.00;99549.38;4184641;28;20040;-71
2022/03/16 03:32:21;;;;;;;31.45;14.48;;;;;;;0.08;100.00;99545.28;4173414;28;20053;-71
2022/03/16 03:34:22;;;;;;;21.17;13.00;;;;;;;0.02;100.00;99544.53;4170488;28;20095;-71
2022/03/16 03:36:22;;;;;;;33.03;13.65;;;;;;;-0.01;100.00;99543.16;4173618;28;20043;-71
2022/03/16 03:38:23;;;;;;;25.75;14.20;;;;;;;-0.07;100.00;99549.75;4184990;28;20365;-71
2022/03/16 03:40:23;;;;;;;23.50;14.27;;;;;;;-0.11;100.00;99548.69;4185555;28;20053;-71
2022/03/16 03:42:24;;;;;;;23.40;13.75;;;;;;;-0.12;100.00;99549.78;4173709;28;20063;-71
2022/03/16 03:44:24;;;;;;;20.92;13.10;;;;;;;-0.15;100.00;99547.63;4171939;28;20431;-71
2022/03/16 03:46:24;;;;;;;22.23;13.80;;;;;;;-0.17;100.00;99544.34;4181812;28;20043;-71
2022/03/16 03:48:25;;;;;;;24.38;13.95;;;;;;;-0.21;100.00;99539.78;4173673;28;20040;-71
2022/03/16 03:50:25;;;;;;;25.08;13.80;;;;;;;-0.25;100.00;99531.34;4169886;28;20045;-71
2022/03/16 03:52:25;;;;;;;19.73;13.93;;;;;;;-0.29;100.00;99538.47;4180264;28;20040;-71
2022/03/16 03:54:26;;;;;;;27.05;12.98;;;;;;;-0.35;100.00;99542.28;4185234;28;20053;-70
2022/03/16 03:56:26;;;;;;;20.20;13.75;;;;;;;-0.41;100.00;99540.72;4174309;28;20049;-70
2022/03/16 03:58:26;;;;;;;21.25;13.60;;;;;;;-0.49;100.00;99536.69;4169834;28;20084;-70
2022/03/16 04:00:27;;;;;;;23.83;13.73;;;;;;;-0.47;100.00;99537.19;4168582;28;20384;-70
2022/03/16 04:02:27;;;;;;;21.77;13.75;;;;;;;-0.39;100.00;99543.97;4176369;28;20051;-70
2022/03/16 04:04:28;;;;;;;18.80;13.02;;;;;;;-0.29;100.00;99542.00;4176358;28;20033;-71
2022/03/16 04:06:28;;;;;;;19.55;12.50;;;;;;;-0.21;100.00;99540.59;4170475;28;20041;-71
2022/03/16 04:08:28;;;;;;;22.35;13.68;;;;;;;-0.17;100.00;99540.81;4173366;28;20052;-70
2022/03/16 04:10:29;;;;;;;23.42;13.30;;;;;;;-0.16;100.00;99534.31;4178454;28;20037;-70
2022/03/16 04:12:29;;;;;;;21.48;13.32;;;;;;;-0.10;100.00;99547.59;4174046;28;20075;-71
2022/03/16 04:14:30;;;;;;;23.13;13.68;;;;;;;-0.06;100.00;99545.94;4179979;28;20044;-70
2022/03/16 04:16:30;;;;;;;26.52;14.35;;;;;;;0.01;100.00;99542.91;4184403;28;20052;-71
2022/03/16 04:18:30;;;;;;;28.35;14.32;;;;;;;-0.03;100.00;99545.38;4174625;28;20420;-71
2022/03/16 04:20:31;;;;;;;34.58;15.32;;;;;;;-0.02;100.00;99540.72;4172864;28;20380;-71
2022/03/16 04:22:31;;;;;;;23.02;13.60;;;;;;;-0.02;100.00;99538.81;4171383;28;20037;-71
2022/03/16 04:24:31;;;;;;;21.98;13.55;;;;;;;0.01;100.00;99536.66;4176267;28;20351;-71
2022/03/16 04:26:32;;;;;;;25.60;14.82;;;;;;;0.04;100.00;99536.91;4173926;28;20461;-71
2022/03/16 04:28:32;;;;;;;20.55;13.63;;;;;;;0.08;100.00;99548.81;4169546;28;20084;-71
2022/03/16 04:30:33;;;;;;;34.58;15.57;;;;;;;0.06;100.00;99550.22;4170061;28;20045;-71
2022/03/16 04:32:33;;;;;;;27.17;15.52;;;;;;;0.04;100.00;99546.97;4169771;28;20041;-71
2022/03/16 04:34:34;;;;;;;28.45;16.30;;;;;;;0.06;100.00;99544.78;4171083;28;20321;-71
2022/03/16 04:36:34;;;;;;;22.63;13.95;;;;;;;0.11;100.00;99547.47;4183219;28;20485;-70
2022/03/16 04:38:34;;;;;;;21.55;13.93;;;;;;;0.18;100.00;99556.13;4184380;28;20074;-70
2022/03/16 04:40:36;;;;;;;23.25;14.27;;;;;;;0.17;100.00;99552.59;4183923;28;20115;-71
2022/03/16 04:42:36;;;;;;;20.33;13.57;;;;;;;0.12;100.00;99557.25;4175768;28;20045;-71
2022/03/16 04:44:36;;;;;;;30.55;15.25;;;;;;;0.06;100.00;99559.19;4177188;28;20698;-71
2022/03/16 04:46:37;;;;;;;29.45;14.80;;;;;;;0.06;100.00;99559.19;4170184;28;20358;-71
2022/03/16 04:48:37;;;;;;;27.55;14.88;;;;;;;-0.02;100.00;99559.78;4169186;28;20653;-70
2022/03/16 04:50:38;;;;;;;26.80;15.52;;;;;;;-0.05;100.00;99563.88;4178874;28;20036;-71
2022/03/16 04:52:47;;;;;;;23.13;15.52;;;;;;;-0.09;100.00;99559.28;4182669;28;20127;-70
2022/03/16 04:54:47;;;;;;;23.17;15.13;;;;;;;-0.16;100.00;99562.34;4182042;28;20041;-70
2022/03/16 04:56:48;;;;;;;29.95;14.55;;;;;;;-0.17;100.00;99563.41;4176505;28;20433;-70
2022/03/16 04:58:48;;;;;;;25.92;15.00;;;;;;;-0.21;100.00;99561.53;4173721;28;20049;-70
2022/03/16 05:00:48;;;;;;;23.50;13.75;;;;;;;-0.29;100.00;99558.31;4174099;28;20112;-70
2022/03/16 05:02:49;;;;;;;24.48;14.45;;;;;;;-0.31;100.00;99565.13;4180545;28;20097;-70
2022/03/16 05:04:49;;;;;;;65.88;17.85;;;;;;;-0.37;100.00;99564.34;4179449;28;20570;-70
2022/03/16 05:06:49;;;;;;;60.85;15.25;;;;;;;-0.41;100.00;99576.06;4173784;28;20540;-70
2022/03/16 05:08:50;;;;;;;22.83;13.27;;;;;;;-0.47;100.00;99569.03;4180432;28;20055;-71
2022/03/16 05:10:50;;;;;;;19.70;13.32;;;;;;;-0.50;100.00;99572.28;4179675;28;20101;-70
2022/03/16 05:12:51;;;;;;;35.88;14.82;;;;;;;-0.54;100.00;99572.03;4182383;28;20148;-71
2022/03/16 05:14:51;;;;;;;29.02;13.98;;;;;;;-0.58;100.00;99577.22;4171101;28;20052;-71
2022/03/16 05:16:53;;;;;;;30.13;15.05;;;;;;;-0.51;100.00;99576.91;4177380;28;20442;-70
2022/03/16 05:18:54;;;;;;;23.42;14.20;;;;;;;-0.58;100.00;99585.38;4178228;28;20614;-71
2022/03/16 05:20:54;;;;;;;30.58;15.88;;;;;;;-0.60;100.00;99584.81;4180072;28;20048;-70
2022/03/16 05:22:55;;;;;;;31.20;14.77;;;;;;;-0.59;100.00;99591.06;4176373;28;20316;-70
2022/03/16 05:24:56;;;;;;;21.13;13.27;;;;;;;-0.64;100.00;99593.81;4178792;28;20044;-70
2022/03/16 05:26:56;;;;;;;24.05;14.63;;;;;;;-0.65;100.00;99589.47;4176740;28;20041;-70
2022/03/16 05:28:56;;;;;;;27.75;14.75;;;;;;;-0.66;100.00;99601.44;4177309;28;20029;-70
2022/03/16 05:30:57;;;;;;;67.22;17.52;;;;;;;-0.61;100.00;99598.69;4177576;28;20033;-70
2022/03/16 05:33:00;;;;;;;57.13;16.25;;;;;;;-0.54;100.00;99603.84;4177711;28;20516;-70
2022/03/16 05:35:00;;;;;;;20.38;13.10;;;;;;;-0.57;100.00;99611.47;4176376;28;20488;-70
2022/03/16 05:37:01;;;;;;;40.38;14.52;;;;;;;-0.61;100.00;99607.66;4177040;28;20041;-70
2022/03/16 05:39:03;;;;;;;23.85;13.65;;;;;;;-0.57;100.00;99600.59;4178831;28;20056;-70
2022/03/16 05:41:04;;;;;;;27.40;13.85;;;;;;;-0.48;100.00;99600.84;4175804;28;20041;-70
2022/03/16 05:43:05;;;;;;;22.77;14.15;;;;;;;-0.40;100.00;99600.25;4178066;28;20068;-70
2022/03/16 05:45:06;;;;;;;31.23;15.32;;;;;;;-0.40;100.00;99600.25;4177356;28;20159;-70
2022/03/16 05:47:06;;;;;;;39.83;16.27;;;;;;;-0.38;100.00;99599.97;4175428;28;20116;-70
2022/03/16 05:49:06;;;;;;;25.98;15.63;;;;;;;-0.34;100.00;99607.28;4176755;28;20071;-70
2022/03/16 05:51:08;;;;;;;38.90;20.27;;;;;;;-0.33;100.00;99605.41;4177589;28;20043;-70
2022/03/16 05:53:08;;;;;;;64.93;31.35;;;;;;;-0.31;100.00;99616.81;4177369;28;20056;-70
2022/03/16 05:55:09;;;;;;;59.17;28.33;;;;;;;-0.31;100.00;99624.97;4176700;28;20037;-70
2022/03/16 05:57:11;;;;;;;45.50;24.42;;;;;;;-0.31;100.00;99625.78;4175879;28;20041;-70
2022/03/16 05:59:11;;;;;;;92.18;20.05;;;;;;;-0.32;100.00;99626.88;4175619;28;20060;-70
2022/03/16 06:01:12;;;;;;;53.75;17.45;;;;;;;-0.36;100.00;99628.50;4177149;28;20041;-70
2022/03/16 06:03:12;;;;;;;35.40;17.10;;;;;;;-0.37;100.00;99639.66;4175814;28;20040;-70
2022/03/16 06:05:14;;;;;;;36.78;18.00;;;;;;;-0.46;100.00;99634.00;4177437;28;20366;-70
2022/03/16 06:07:14;;;;;;;31.45;16.52;;;;;;;-0.45;100.00;99642.97;4177570;28;20036;-70
2022/03/16 06:09:14;;;;;;;55.15;17.45;;;;;;;-0.51;100.00;99642.16;4175550;28;20523;-70
2022/03/16 06:11:15;;;;;;;67.00;19.98;;;;;;;-0.59;100.00;99634.56;4177903;28;20044;-70
2022/03/16 06:13:16;;;;;;;25.30;15.25;;;;;;;-0.59;100.00;99640.00;4172252;28;20632;-70
2022/03/16 06:15:16;;;;;;;48.90;17.75;;;;;;;-0.55;100.00;99643.81;4171167;28;20037;-70
2022/03/16 06:17:16;;;;;;;30.90;15.43;;;;;;;-0.58;100.00;99639.75;4173646;28;20052;-71
2022/03/16 06:19:17;;;;;;;86.40;18.60;;;;;;;-0.65;100.00;99641.94;4176899;28;20041;-70
2022/03/16 06:21:17;;;;;;;85.05;18.52;;;;;;;-0.70;100.00;99643.84;4175416;28;20432;-70
2022/03/16 06:23:17;;;;;;;81.85;19.02;;;;;;;-0.73;100.00;99649.84;4177355;28;20423;-70
2022/03/16 06:25:18;;;;;;;32.72;16.95;;;;;;;-0.78;100.00;99644.41;4177402;28;20048;-70
2022/03/16 06:27:18;;;;;;;30.63;18.00;;;;;;;-0.71;100.00;99645.75;4174727;28;20107;-70
2022/03/16 06:29:19;;;;;;;56.50;17.33;;;;;;;-0.70;100.00;99641.94;4175027;28;20081;-70
2022/03/16 06:31:19;;;;;;;37.30;17.10;;;;;;;-0.68;100.00;99645.19;4171206;28;20050;-70
2022/03/16 06:33:19;;;;;;;116.13;21.15;;;;;;;-0.73;100.00;99638.97;4173960;28;20044;-70
2022/03/16 06:35:20;;;;;;;28.95;17.27;;;;;;;-0.68;100.00;99647.09;4176076;28;20037;-70
2022/03/16 06:37:20;;;;;;;35.47;17.63;;;;;;;-0.61;100.00;99650.34;4170092;28;20120;-70
2022/03/16 06:39:20;;;;;;;28.27;15.48;;;;;;;-0.60;100.00;99651.97;4174089;28;20041;-70
2022/03/16 06:41:21;;;;;;;35.83;17.95;;;;;;;-0.60;100.00;99654.69;4178248;28;20045;-70
2022/03/16 06:43:21;;;;;;;88.70;20.80;;;;;;;-0.60;100.00;99652.78;4177176;28;20320;-70
2022/03/16 06:45:23;;;;;;;45.25;25.77;;;;;;;-0.55;100.00;99662.84;4094890;28;20041;-70
2022/03/16 06:47:23;;;;;;;32.88;21.98;;;;;;;-0.52;100.00;99656.03;4179162;28;20144;-70
2022/03/16 06:49:23;;;;;;;29.77;17.50;;;;;;;-0.51;100.00;99668.53;4175631;28;20504;-70
2022/03/16 06:51:24;;;;;;;31.48;15.38;;;;;;;-0.49;100.00;99658.22;4184980;28;20519;-70
2022/03/16 06:53:24;;;;;;;27.27;15.68;;;;;;;-0.49;100.00;99669.91;4185108;28;20131;-70
2022/03/16 06:55:26;;;;;;;29.15;16.65;;;;;;;-0.47;100.00;99669.63;4186207;28;20070;-70
2022/03/16 06:57:27;;;;;;;28.13;16.63;;;;;;;-0.48;100.00;99676.97;4179956;28;20152;-70
2022/03/16 06:59:27;;;;;;;43.72;19.67;;;;;;;-0.50;100.00;99676.41;4170527;28;20079;-70
2022/03/16 07:01:27;;;;;;;43.03;17.55;;;;;;;-0.48;100.00;99676.16;4182190;28;20040;-70
2022/03/16 07:03:28;;;;;;;33.65;20.80;;;;;;;-0.44;100.00;99686.19;4185294;28;20381;-70
2022/03/16 07:05:34;;;;;;;37.78;24.15;;;;;;;-0.45;100.00;99683.75;4184947;28;20500;-70
2022/03/16 07:07:34;;;;;;;28.92;17.27;;;;;;;-0.43;100.00;99685.09;4184286;28;20047;-70
2022/03/16 07:09:34;;;;;;;34.20;17.10;;;;;;;-0.38;100.00;99687.00;4181666;28;20473;-70
2022/03/16 07:11:35;;;;;;;26.35;17.20;;;;;;;-0.34;100.00;99686.13;4173220;28;20123;-70
2022/03/16 07:13:35;;;;;;;25.30;14.55;;;;;;;-0.32;100.00;99686.69;4185042;28;20087;-70
2022/03/16 07:15:36;;;;;;;22.85;15.35;;;;;;;-0.32;100.00;99680.44;4185410;28;20032;-70
2022/03/16 07:17:37;;;;;;;33.65;16.08;;;;;;;-0.28;100.00;99689.66;4183037;28;20369;-70
2022/03/16 07:19:37;;;;;;;24.25;15.23;;;;;;;-0.25;100.00;99702.69;4178629;28;20053;-70
2022/03/16 07:21:40;;;;;;;33.10;17.25;;;;;;;-0.25;100.00;99691.81;4168502;28;20821;-70
2022/03/16 07:23:41;;;;;;;41.33;18.52;;;;;;;-0.16;100.00;99698.34;4172464;28;20393;-70
2022/03/16 07:25:44;;;;;;;26.17;15.68;;;;;;;-0.08;100.00;99696.97;4165648;28;20055;-70
2022/03/16 07:27:44;;;;;;;101.05;23.48;;;;;;;-0.05;100.00;99686.31;4164730;28;20212;-70
2022/03/16 07:29:44;;;;;;;41.40;19.73;;;;;;;0.01;100.00;99697.19;4172023;28;20533;-70
2022/03/16 07:31:44;;;;;;;34.85;18.42;;;;;;;0.05;100.00;99690.09;4172388;28;20049;-70
2022/03/16 07:33:45;;;;;;;51.63;19.00;;;;;;;0.09;100.00;99688.44;4170581;28;20041;-70
2022/03/16 07:35:46;;;;;;;26.60;17.50;;;;;;;0.13;100.00;99684.06;4174464;28;20097;-70
2022/03/16 07:37:47;;;;;;;29.27;17.02;;;;;;;0.19;100.00;99691.94;4171798;28;20041;-70
2022/03/16 07:39:47;;;;;;;31.73;18.05;;;;;;;0.23;100.00;99694.88;4181856;28;20040;-70
2022/03/16 07:41:48;;;;;;;29.10;16.73;;;;;;;0.30;100.00;99686.41;4170507;28;20051;-70
2022/03/16 07:43:48;;;;;;;29.70;18.60;;;;;;;0.36;100.00;99693.47;4169473;28;20072;-70
2022/03/16 07:45:48;;;;;;;36.08;18.98;;;;;;;0.40;100.00;99697.25;4169192;28;20044;-70
2022/03/16 07:47:52;;;;;;;30.80;17.23;;;;;;;0.44;100.00;99704.59;4170368;28;20131;-70
2022/03/16 07:49:56;;;;;;;47.00;19.60;;;;;;;0.49;100.00;99703.72;4177150;28;20053;-70
2022/03/16 07:51:56;;;;;;;29.70;16.77;;;;;;;0.58;100.00;99704.78;4172916;28;20140;-70
2022/03/16 07:53:56;;;;;;;70.63;21.25;;;;;;;0.62;100.00;99708.56;4173097;28;20099;-70
2022/03/16 07:55:57;;;;;;;52.15;19.23;;;;;;;0.55;100.00;99711.59;4171429;28;20399;-70
2022/03/16 07:57:59;;;;;;;34.03;17.83;;;;;;;0.57;100.00;99714.84;4169135;28;20037;-70
2022/03/16 07:59:59;;;;;;;31.33;16.58;;;;;;;0.66;100.00;99715.03;4170289;28;20136;-70
2022/03/16 08:01:59;;;;;;;28.15;16.83;;;;;;;0.67;100.00;99713.16;4178290;28;20523;-70
2022/03/16 08:04:00;;;;;;;44.45;17.30;;;;;;;0.75;100.00;99721.53;4176571;28;20052;-70
2022/03/16 08:06:00;;;;;;;23.92;15.30;;;;;;;0.79;100.00;99713.59;4173097;28;20045;-70
2022/03/16 08:08:00;;;;;;;27.25;16.40;;;;;;;0.87;100.00;99720.38;4169149;28;20037;-70
2022/03/16 08:10:00;;;;;;;87.97;18.70;;;;;;;0.89;100.00;99718.16;4179792;28;20833;-71
2022/03/16 08:12:02;;;;;;;68.22;20.40;;;;;;;0.89;100.00;99718.16;4175688;28;20524;-70
2022/03/16 08:14:02;;;;;;;28.40;18.23;;;;;;;0.94;100.00;99723.59;4180361;28;20436;-70
2022/03/16 08:16:06;;;;;;;58.55;17.48;;;;;;;0.95;100.00;99720.56;4169073;28;20090;-70
2022/03/16 08:18:06;;;;;;;28.40;16.40;;;;;;;1.02;100.00;99726.53;4169089;28;20287;-70
2022/03/16 08:20:07;;;;;;;38.20;18.10;;;;;;;1.06;100.00;99733.00;4176593;28;20031;-70
2022/03/16 08:22:08;;;;;;;30.63;18.30;;;;;;;1.12;100.00;99731.06;4167027;28;20376;-70
2022/03/16 08:24:08;;;;;;;30.08;18.00;;;;;;;1.25;100.00;99719.53;4169515;28;20029;-70
2022/03/16 08:26:09;;;;;;;30.90;17.35;;;;;;;1.33;100.00;99726.28;4164890;28;20441;-70
2022/03/16 08:28:09;;;;;;;26.70;16.63;;;;;;;1.40;100.00;99733.00;4165205;28;20056;-70
2022/03/16 08:30:10;;;;;;;66.63;17.30;;;;;;;1.36;100.00;99731.13;4165814;28;20017;-70
2022/03/16 08:32:11;;;;;;;40.75;23.27;;;;;;;1.44;100.00;99729.72;4171649;28;20090;-70
2022/03/16 08:34:11;;;;;;;43.97;18.38;;;;;;;1.57;100.00;99732.59;4171818;28;20460;-70
2022/03/16 08:36:11;;;;;;;29.17;17.30;;;;;;;1.66;100.00;99741.75;4167471;28;20025;-70
2022/03/16 08:38:12;;;;;;;26.63;15.85;;;;;;;1.74;100.00;99734.03;4170198;28;20402;-70
2022/03/16 08:40:15;;;;;;;34.80;16.73;;;;;;;1.83;100.00;99727.66;4113460;28;20053;-70
2022/03/16 08:42:16;;;;;;;28.67;16.23;;;;;;;1.90;100.00;99730.88;4170259;28;20044;-70
2022/03/16 08:44:17;;;;;;;34.10;20.38;;;;;;;1.94;100.00;99722.91;4171259;28;20032;-70
2022/03/16 08:46:17;;;;;;;51.80;23.40;;;;;;;2.02;100.00;99729.63;4171052;28;20040;-70
2022/03/16 08:48:18;;;;;;;30.42;17.55;;;;;;;2.02;100.00;99722.25;4171323;28;20099;-70
2022/03/16 08:50:18;;;;;;;26.25;16.48;;;;;;;2.06;100.00;99726.00;4170578;28;20029;-70
2022/03/16 08:52:19;;;;;;;37.83;16.33;;;;;;;2.08;100.00;99723.81;4171234;28;20385;-71
2022/03/16 08:54:19;;;;;;;22.38;15.32;;;;;;;2.12;100.00;99733.03;4170763;28;20033;-70
2022/03/16 08:56:19;;;;;;;23.60;13.95;;;;;;;2.12;100.00;99733.03;4172889;28;20057;-70
2022/03/16 08:58:20;;;;;;;30.80;16.75;;;;;;;2.15;100.00;99734.38;4171500;28;20060;-70
2022/03/16 09:00:20;;;;;;;25.27;15.75;;;;;;;2.18;100.00;99733.81;4170438;28;20120;-70
2022/03/16 09:02:21;;;;;;;24.55;15.35;;;;;;;2.20;100.00;99728.84;4167840;28;20539;-70
2022/03/16 09:04:21;;;;;;;31.23;15.85;;;;;;;2.21;100.00;99725.03;4169376;28;20499;-70
2022/03/16 09:06:21;;;;;;;26.70;16.00;;;;;;;2.25;100.00;99729.63;4170234;28;20504;-70
2022/03/16 09:08:22;;;;;;;34.95;19.13;;;;;;;2.35;100.00;99736.06;4169257;28;20051;-70
2022/03/16 09:10:22;;;;;;;35.75;21.55;;;;;;;2.41;100.00;99726.69;4172621;28;20480;-70
2022/03/16 09:12:24;;;;;;;56.15;28.20;;;;;;;2.53;100.00;99721.59;4173402;28;20327;-70